createdAt,value
2022-09-12T00:03:47.500Z,12.37
2022-09-12T00:07:49.685Z,12.33
2022-09-12T00:11:51.753Z,12.40
2022-09-12T00:15:53.729Z,12.45
2022-09-12T00:19:56.069Z,12.43
2022-09-12T00:23:58.381Z,12.40
2022-09-12T00:28:00.373Z,12.48
2022-09-12T00:32:02.516Z,12.51
2022-09-12T00:36:14.746Z,12.54
2022-09-12T00:40:17.081Z,12.45
2022-09-12T00:44:22.321Z,12.32
2022-09-12T00:48:33.875Z,12.13
2022-09-12T00:52:43.968Z,12.09
2022-09-12T00:56:48.540Z,12.15
2022-09-12T01:00:51.403Z,12.17
2022-09-12T01:04:53.564Z,12.18
2022-09-12T01:08:56.740Z,12.04
2022-09-12T01:12:59.311Z,12.01
2022-09-12T01:17:01.713Z,11.96
2022-09-12T01:21:18.959Z,11.96
2022-09-12T01:25:58.132Z,11.89
2022-09-12T01:30:05.888Z,11.86
2022-09-12T01:34:29.113Z,11.74
2022-09-12T01:38:45.326Z,11.72
2022-09-12T01:42:57.857Z,11.70
2022-09-12T01:47:08.485Z,11.53
2022-09-12T01:51:26.205Z,11.42
2022-09-12T01:55:28.079Z,11.26
2022-09-12T01:59:39.432Z,11.32
2022-09-12T02:03:46.841Z,11.41
2022-09-12T02:07:53.741Z,11.37
2022-09-12T02:11:59.147Z,11.42
2022-09-12T02:16:25.740Z,11.38
2022-09-12T02:20:48.101Z,11.42
2022-09-12T02:24:54.028Z,11.45
2022-09-12T02:28:56.883Z,11.42
2022-09-12T02:33:05.652Z,11.41
2022-09-12T02:37:29.549Z,11.47
2022-09-12T02:41:31.887Z,11.48
2022-09-12T02:45:35.809Z,11.50
2022-09-12T02:49:38.012Z,11.47
2022-09-12T02:53:41.914Z,11.35
2022-09-12T02:57:43.896Z,11.20
2022-09-12T03:02:01.223Z,11.10
2022-09-12T03:06:16.165Z,10.99
2022-09-12T03:10:50.078Z,10.82
2022-09-12T03:15:12.135Z,10.82
2022-09-12T03:19:22.235Z,10.73
2022-09-12T03:23:36.831Z,10.66
2022-09-12T03:27:45.050Z,10.79
2022-09-12T03:31:53.774Z,10.86
2022-09-12T03:35:56.393Z,10.87
2022-09-12T03:39:58.435Z,10.96
2022-09-12T03:44:00.558Z,11.07
2022-09-12T03:48:03.914Z,11.13
2022-09-12T03:52:06.026Z,11.12
2022-09-12T03:56:09.954Z,10.89
2022-09-12T04:00:16.406Z,10.79
2022-09-12T04:04:21.163Z,10.76
2022-09-12T04:08:23.187Z,10.73
2022-09-12T04:12:25.192Z,10.80
2022-09-12T04:16:27.195Z,10.89
2022-09-12T04:20:29.269Z,10.95
2022-09-12T04:24:31.761Z,11.00
2022-09-12T04:28:35.661Z,10.98
2022-09-12T04:32:37.852Z,10.93
2022-09-12T04:36:39.900Z,10.91
2022-09-12T04:40:41.966Z,10.93
2022-09-12T04:44:43.964Z,10.95
2022-09-12T04:48:46.978Z,11.04
2022-09-12T04:52:53.401Z,11.10
2022-09-12T04:56:55.462Z,11.19
2022-09-12T05:01:07.537Z,11.22
2022-09-12T05:05:10.253Z,11.27
2022-09-12T05:09:14.012Z,11.34
2022-09-12T05:13:16.009Z,11.41
2022-09-12T05:17:18.006Z,11.31
2022-09-12T05:21:23.121Z,11.30
2022-09-12T05:25:25.834Z,11.39
2022-09-12T05:29:27.920Z,11.52
2022-09-12T05:33:30.862Z,11.68
2022-09-12T05:37:33.005Z,11.83
2022-09-12T05:41:36.171Z,12.00
2022-09-12T05:45:42.078Z,12.16
2022-09-12T05:49:45.201Z,12.37
2022-09-12T05:53:49.741Z,12.59
2022-09-12T05:57:51.916Z,12.72
2022-09-12T06:01:53.984Z,12.96
2022-09-12T06:05:55.989Z,13.08
2022-09-12T06:09:59.247Z,13.28
2022-09-12T06:14:01.905Z,13.42
2022-09-12T06:18:04.044Z,13.52
2022-09-12T06:22:06.037Z,13.58
2022-09-12T06:26:09.909Z,15.13
2022-09-12T06:30:12.553Z,17.87
2022-09-12T06:34:16.006Z,19.74
2022-09-12T06:38:18.418Z,21.21
2022-09-12T06:42:20.375Z,21.90
2022-09-12T06:46:31.491Z,21.08
2022-09-12T06:50:33.598Z,19.99
2022-09-12T06:54:35.600Z,18.43
2022-09-12T06:58:38.031Z,17.34
2022-09-12T07:02:40.499Z,16.71
2022-09-12T07:06:44.487Z,16.38
2022-09-12T07:10:47.083Z,16.26
2022-09-12T07:14:49.347Z,16.25
2022-09-12T07:18:52.752Z,16.27
2022-09-12T07:22:54.731Z,16.33
2022-09-12T07:26:56.746Z,16.38
2022-09-12T07:31:04.567Z,16.46
2022-09-12T07:35:07.014Z,16.57
2022-09-12T07:39:09.624Z,16.69
2022-09-12T07:43:11.812Z,16.84
2022-09-12T07:47:13.790Z,17.01
2022-09-12T07:51:15.766Z,17.19
2022-09-12T07:55:17.719Z,17.47
2022-09-12T07:59:41.583Z,17.73
2022-09-12T08:03:43.451Z,18.04
2022-09-12T08:07:45.436Z,18.30
2022-09-12T08:11:47.442Z,18.40
2022-09-12T08:15:49.530Z,18.39
2022-09-12T08:19:52.546Z,18.49
2022-09-12T08:24:03.763Z,18.60
2022-09-12T08:28:06.107Z,18.80
2022-09-12T08:32:08.360Z,18.98
2022-09-12T08:36:22.620Z,19.17
2022-09-12T08:40:24.627Z,19.32
2022-09-12T08:44:44.374Z,19.51
2022-09-12T08:48:46.804Z,19.68
2022-09-12T08:52:54.876Z,19.84
2022-09-12T08:57:03.283Z,19.99
2022-09-12T09:01:07.055Z,20.18
2022-09-12T09:05:29.648Z,20.32
2022-09-12T09:09:56.427Z,20.48
2022-09-12T09:14:22.181Z,20.59
2022-09-12T09:18:32.167Z,20.75
2022-09-12T09:22:36.902Z,20.95
2022-09-12T09:26:41.848Z,21.09
2022-09-12T09:30:44.911Z,21.23
2022-09-12T09:34:47.939Z,21.40
2022-09-12T09:39:11.587Z,21.50
2022-09-12T09:43:22.962Z,21.62
2022-09-12T09:47:25.149Z,21.78
2022-09-12T09:51:32.804Z,21.86
2022-09-12T09:55:41.065Z,21.89
2022-09-12T09:59:43.068Z,21.93
2022-09-12T10:03:53.199Z,21.96
2022-09-12T10:07:55.473Z,22.05
2022-09-12T10:11:57.457Z,22.14
2022-09-12T10:16:22.095Z,22.31
2022-09-12T10:20:39.007Z,22.40
2022-09-12T10:24:43.510Z,22.49
2022-09-12T10:28:54.728Z,22.55
2022-09-12T10:33:11.543Z,22.64
2022-09-12T10:37:28.763Z,22.74
2022-09-12T10:41:39.201Z,22.81
2022-09-12T10:45:41.268Z,22.92
2022-09-12T10:49:43.288Z,23.03
2022-09-12T10:53:46.804Z,23.05
2022-09-12T10:58:03.944Z,23.11
2022-09-12T11:02:26.457Z,23.07
2022-09-12T11:06:43.488Z,23.17
2022-09-12T11:10:54.411Z,23.29
2022-09-12T11:15:02.983Z,23.32
2022-09-12T11:19:41.210Z,23.38
2022-09-12T11:24:09.482Z,23.43
2022-09-12T11:28:47.500Z,23.44
2022-09-12T11:32:49.372Z,23.41
2022-09-12T11:37:02.130Z,23.40
2022-09-12T11:41:11.478Z,23.40
2022-09-12T11:45:25.005Z,23.30
2022-09-12T11:49:51.793Z,23.26
2022-09-12T11:54:03.432Z,23.32
2022-09-12T11:58:09.554Z,23.31
2022-09-12T12:02:17.314Z,23.35
2022-09-12T12:06:31.261Z,23.39
2022-09-12T12:10:38.521Z,23.38
2022-09-12T12:14:47.565Z,23.39
2022-09-12T12:18:58.632Z,23.47
2022-09-12T12:23:01.043Z,23.53
2022-09-12T12:27:05.637Z,23.51
2022-09-12T12:31:09.370Z,23.39
2022-09-12T12:35:41.691Z,23.45
2022-09-12T12:39:43.952Z,23.44
2022-09-12T12:43:50.757Z,23.52
2022-09-12T12:48:00.229Z,23.59
2022-09-12T12:52:02.519Z,23.65
2022-09-12T12:56:05.147Z,23.66
2022-09-12T13:00:29.920Z,23.70
2022-09-12T13:04:32.870Z,23.79
2022-09-12T13:08:38.974Z,23.81
2022-09-12T13:12:47.607Z,23.87
2022-09-12T13:16:59.956Z,23.89
2022-09-12T13:21:12.509Z,24.00
2022-09-12T13:25:36.021Z,24.05
2022-09-12T13:29:38.489Z,24.09
2022-09-12T13:33:46.756Z,24.14
2022-09-12T13:37:59.525Z,24.04
2022-09-12T13:42:30.968Z,24.10
2022-09-12T13:46:34.396Z,24.11
2022-09-12T13:50:46.138Z,24.15
2022-09-12T13:54:51.972Z,24.22
2022-09-12T13:59:02.513Z,24.25
2022-09-12T14:03:43.946Z,24.22
2022-09-12T14:07:55.043Z,24.20
2022-09-12T14:11:58.153Z,24.19
2022-09-12T14:16:00.365Z,24.14
2022-09-12T14:20:07.139Z,24.08
2022-09-12T14:24:12.425Z,24.08
2022-09-12T14:28:23.630Z,24.10
2022-09-12T14:32:26.305Z,24.17
2022-09-12T14:36:35.721Z,24.12
2022-09-12T14:40:48.461Z,24.13
2022-09-12T14:44:58.751Z,24.10
2022-09-12T14:49:31.343Z,24.07
2022-09-12T14:53:34.802Z,24.05
2022-09-12T14:57:40.849Z,23.98
2022-09-12T15:01:42.963Z,23.94
2022-09-12T15:05:49.844Z,23.89
2022-09-12T15:09:52.316Z,23.90
2022-09-12T15:13:54.594Z,23.91
2022-09-12T15:17:56.583Z,23.90
2022-09-12T15:21:58.609Z,23.91
2022-09-12T15:26:01.350Z,23.89
2022-09-12T15:30:03.613Z,23.87
2022-09-12T15:34:05.762Z,23.84
2022-09-12T15:38:07.753Z,23.80
2022-09-12T15:42:11.311Z,23.75
2022-09-12T15:46:15.002Z,23.73
2022-09-12T15:50:17.165Z,23.68
2022-09-12T15:54:20.774Z,23.60
2022-09-12T15:58:22.949Z,23.55
2022-09-12T16:02:24.989Z,23.55
2022-09-12T16:06:33.557Z,23.54
2022-09-12T16:10:38.837Z,23.53
2022-09-12T16:14:40.815Z,23.49
2022-09-12T16:18:42.914Z,23.45
2022-09-12T16:22:45.085Z,23.42
2022-09-12T16:26:47.083Z,23.33
2022-09-12T16:30:57.133Z,23.25
2022-09-12T16:34:59.299Z,23.17
2022-09-12T16:39:01.525Z,23.07
2022-09-12T16:43:03.512Z,22.94
2022-09-12T16:47:05.631Z,22.82
2022-09-12T16:51:07.712Z,22.74
2022-09-12T16:55:09.987Z,22.67
2022-09-12T16:59:16.137Z,22.60
2022-09-12T17:03:18.133Z,22.52
2022-09-12T17:07:20.128Z,22.43
2022-09-12T17:11:25.135Z,22.32
2022-09-12T17:15:27.247Z,22.21
2022-09-12T17:19:32.304Z,22.06
2022-09-12T17:23:34.795Z,21.88
2022-09-12T17:27:37.176Z,21.74
2022-09-12T17:31:40.465Z,21.58
2022-09-12T17:35:42.574Z,21.46
2022-09-12T17:39:44.606Z,21.27
2022-09-12T17:43:52.725Z,21.10
2022-09-12T17:47:54.761Z,20.91
2022-09-12T17:51:57.811Z,20.74
2022-09-12T17:56:03.021Z,20.59
2022-09-12T18:00:05.684Z,20.45
2022-09-12T18:04:13.896Z,20.32
2022-09-12T18:08:15.872Z,20.20
2022-09-12T18:12:19.077Z,19.97
2022-09-12T18:16:21.198Z,19.77
2022-09-12T18:20:23.186Z,19.65
2022-09-12T18:24:26.418Z,19.50
2022-09-12T18:28:28.418Z,19.36
2022-09-12T18:32:30.409Z,19.21
2022-09-12T18:36:32.578Z,19.10
2022-09-12T18:40:34.578Z,18.98
2022-09-12T18:44:36.555Z,18.72
2022-09-12T18:48:38.750Z,18.57
2022-09-12T18:52:40.741Z,18.32
2022-09-12T18:56:43.813Z,18.17
2022-09-12T19:00:48.250Z,18.16
2022-09-12T19:04:50.357Z,18.15
2022-09-12T19:08:53.886Z,18.15
2022-09-12T19:12:55.899Z,18.09
2022-09-12T19:16:57.896Z,17.92
2022-09-12T19:21:01.384Z,17.78
2022-09-12T19:25:03.598Z,17.68
2022-09-12T19:29:06.922Z,17.60
2022-09-12T19:33:08.917Z,17.48
2022-09-12T19:37:10.959Z,17.30
2022-09-12T19:41:15.318Z,17.21
2022-09-12T19:45:17.446Z,17.20
2022-09-12T19:49:19.435Z,17.16
2022-09-12T19:53:21.434Z,17.01
2022-09-12T19:57:23.428Z,16.83
2022-09-12T20:01:30.375Z,16.72
2022-09-12T20:05:33.323Z,16.62
2022-09-12T20:09:35.932Z,16.63
2022-09-12T20:13:38.169Z,16.65
2022-09-12T20:17:40.641Z,16.57
2022-09-12T20:21:42.936Z,16.52
2022-09-12T20:25:44.974Z,16.38
2022-09-12T20:29:47.029Z,16.32
2022-09-12T20:33:51.776Z,16.22
2022-09-12T20:37:54.168Z,16.13
2022-09-12T20:41:56.154Z,16.11
2022-09-12T20:45:58.240Z,16.07
2022-09-12T20:50:00.252Z,15.99
2022-09-12T20:54:04.759Z,15.73
2022-09-12T20:58:06.749Z,15.56
2022-09-12T21:02:15.955Z,15.55
2022-09-12T21:06:19.327Z,15.58
2022-09-12T21:10:21.341Z,15.62
2022-09-12T21:14:23.885Z,15.69
2022-09-12T21:18:25.949Z,15.63
2022-09-12T21:22:27.962Z,15.65
2022-09-12T21:26:30.648Z,15.61
2022-09-12T21:30:32.753Z,15.49
2022-09-12T21:34:34.765Z,15.40
2022-09-12T21:38:36.921Z,15.21
2022-09-12T21:42:38.913Z,15.06
2022-09-12T21:46:40.937Z,15.08
2022-09-12T21:50:43.119Z,14.97
2022-09-12T21:54:45.103Z,14.90
2022-09-12T21:58:47.368Z,14.98
2022-09-12T22:02:49.666Z,15.13
2022-09-12T22:06:51.681Z,15.32
2022-09-12T22:10:58.396Z,15.48
2022-09-12T22:15:08.915Z,15.70
2022-09-12T22:19:19.790Z,15.93
2022-09-12T22:23:40.512Z,16.08
2022-09-12T22:27:42.500Z,16.14
2022-09-12T22:31:44.538Z,16.19
2022-09-12T22:35:46.567Z,16.29
2022-09-12T22:39:48.667Z,16.40
2022-09-12T22:43:51.032Z,16.44
2022-09-12T22:47:53.136Z,16.39
2022-09-12T22:51:55.121Z,16.36
2022-09-12T22:55:57.210Z,16.30
2022-09-12T22:59:59.201Z,16.24
2022-09-12T23:04:03.348Z,16.15
2022-09-12T23:08:05.480Z,16.11
2022-09-12T23:12:07.512Z,16.10
2022-09-12T23:16:14.769Z,16.08
2022-09-12T23:20:16.834Z,15.99
2022-09-12T23:24:18.956Z,15.91
2022-09-12T23:28:21.412Z,15.79
2022-09-12T23:32:23.829Z,15.72
2022-09-12T23:36:27.117Z,15.73
2022-09-12T23:40:29.258Z,15.76
2022-09-12T23:44:31.254Z,15.77
2022-09-12T23:48:34.220Z,15.69
2022-09-12T23:52:36.295Z,15.55
2022-09-12T23:56:38.355Z,15.46
